sensor_id;sensor_type;location;lat;lon;timestamp;temperature;humidity
21338;DHT22;10827;50.878;4.382;2022-08-26T00:00:24;22.50;51.20
21338;DHT22;10827;50.878;4.382;2022-08-26T00:02:50;22.70;40.30
21338;DHT22;10827;50.878;4.382;2022-08-26T00:05:16;22.40;32.20
21338;DHT22;10827;50.878;4.382;2022-08-26T00:07:42;22.50;33.40
21338;DHT22;10827;50.878;4.382;2022-08-26T00:12:34;22.50;40.00
21338;DHT22;10827;50.878;4.382;2022-08-26T00:15:00;22.30;41.80
21338;DHT22;10827;50.878;4.382;2022-08-26T00:17:26;22.30;37.70
21338;DHT22;10827;50.878;4.382;2022-08-26T00:19:52;22.40;40.30
21338;DHT22;10827;50.878;4.382;2022-08-26T00:22:18;22.50;36.30
21338;DHT22;10827;50.878;4.382;2022-08-26T00:24:44;22.60;30.80
21338;DHT22;10827;50.878;4.382;2022-08-26T00:29:36;22.70;21.10
21338;DHT22;10827;50.878;4.382;2022-08-26T00:32:02;22.80;18.40
21338;DHT22;10827;50.878;4.382;2022-08-26T00:34:27;22.20;24.00
21338;DHT22;10827;50.878;4.382;2022-08-26T00:36:53;22.10;24.50
21338;DHT22;10827;50.878;4.382;2022-08-26T00:39:19;22.20;26.40
21338;DHT22;10827;50.878;4.382;2022-08-26T00:41:45;22.20;18.50
21338;DHT22;10827;50.878;4.382;2022-08-26T00:44:11;22.20;20.20
21338;DHT22;10827;50.878;4.382;2022-08-26T00:46:44;22.20;7.70
21338;DHT22;10827;50.878;4.382;2022-08-26T00:49:16;22.30;6.50
21338;DHT22;10827;50.878;4.382;2022-08-26T00:51:50;22.60;11.30
21338;DHT22;10827;50.878;4.382;2022-08-26T00:54:20;22.60;1.00
21338;DHT22;10827;50.878;4.382;2022-08-26T00:59:14;22.30;20.90
21338;DHT22;10827;50.878;4.382;2022-08-26T01:01:42;22.30;21.50
21338;DHT22;10827;50.878;4.382;2022-08-26T01:04:10;22.20;12.90
21338;DHT22;10827;50.878;4.382;2022-08-26T01:06:37;22.10;25.70
21338;DHT22;10827;50.878;4.382;2022-08-26T01:09:03;22.10;19.50
21338;DHT22;10827;50.878;4.382;2022-08-26T01:11:30;22.10;34.30
21338;DHT22;10827;50.878;4.382;2022-08-26T01:13:59;22.20;34.30
21338;DHT22;10827;50.878;4.382;2022-08-26T01:16:26;22.20;21.00
21338;DHT22;10827;50.878;4.382;2022-08-26T01:18:57;22.30;17.00
21338;DHT22;10827;50.878;4.382;2022-08-26T01:21:44;22.20;16.30
21338;DHT22;10827;50.878;4.382;2022-08-26T01:24:12;22.10;18.60
21338;DHT22;10827;50.878;4.382;2022-08-26T01:26:40;22.30;14.10
21338;DHT22;10827;50.878;4.382;2022-08-26T01:29:10;22.20;18.50
21338;DHT22;10827;50.878;4.382;2022-08-26T01:31:44;22.20;30.90
21338;DHT22;10827;50.878;4.382;2022-08-26T01:36:52;22.30;28.30
21338;DHT22;10827;50.878;4.382;2022-08-26T01:39:19;22.20;37.40
21338;DHT22;10827;50.878;4.382;2022-08-26T01:41:45;22.00;17.70
21338;DHT22;10827;50.878;4.382;2022-08-26T01:44:18;22.30;37.50
21338;DHT22;10827;50.878;4.382;2022-08-26T01:46:45;21.90;29.80
21338;DHT22;10827;50.878;4.382;2022-08-26T01:49:13;21.80;57.40
21338;DHT22;10827;50.878;4.382;2022-08-26T01:51:40;21.90;58.00
21338;DHT22;10827;50.878;4.382;2022-08-26T01:54:10;21.90;54.90
21338;DHT22;10827;50.878;4.382;2022-08-26T01:56:36;22.20;45.00
21338;DHT22;10827;50.878;4.382;2022-08-26T01:59:06;22.00;51.80
21338;DHT22;10827;50.878;4.382;2022-08-26T02:01:33;22.20;54.60
21338;DHT22;10827;50.878;4.382;2022-08-26T02:04:18;21.80;53.80
21338;DHT22;10827;50.878;4.382;2022-08-26T02:06:46;21.90;57.70
21338;DHT22;10827;50.878;4.382;2022-08-26T02:09:12;21.80;69.20
21338;DHT22;10827;50.878;4.382;2022-08-26T02:14:27;22.00;60.30
21338;DHT22;10827;50.878;4.382;2022-08-26T02:16:54;21.90;59.30
21338;DHT22;10827;50.878;4.382;2022-08-26T02:19:23;21.70;46.10
21338;DHT22;10827;50.878;4.382;2022-08-26T02:21:51;21.80;70.70
21338;DHT22;10827;50.878;4.382;2022-08-26T02:24:26;21.70;50.00
21338;DHT22;10827;50.878;4.382;2022-08-26T02:26:52;21.80;66.70
21338;DHT22;10827;50.878;4.382;2022-08-26T02:29:35;21.90;61.60
21338;DHT22;10827;50.878;4.382;2022-08-26T02:32:06;21.80;64.30
21338;DHT22;10827;50.878;4.382;2022-08-26T02:34:33;21.90;50.40
21338;DHT22;10827;50.878;4.382;2022-08-26T02:37:05;21.70;65.20
21338;DHT22;10827;50.878;4.382;2022-08-26T02:39:33;21.60;49.20
21338;DHT22;10827;50.878;4.382;2022-08-26T02:42:02;21.70;56.10
21338;DHT22;10827;50.878;4.382;2022-08-26T02:44:29;21.50;77.90
21338;DHT22;10827;50.878;4.382;2022-08-26T02:46:55;22.10;68.80
21338;DHT22;10827;50.878;4.382;2022-08-26T02:49:21;21.50;58.30
21338;DHT22;10827;50.878;4.382;2022-08-26T02:51:49;21.40;82.20
21338;DHT22;10827;50.878;4.382;2022-08-26T02:54:16;21.40;65.70
21338;DHT22;10827;50.878;4.382;2022-08-26T02:56:43;21.50;77.90
21338;DHT22;10827;50.878;4.382;2022-08-26T02:59:09;21.40;80.70
21338;DHT22;10827;50.878;4.382;2022-08-26T03:01:39;21.40;63.40
21338;DHT22;10827;50.878;4.382;2022-08-26T03:04:07;21.60;74.50
21338;DHT22;10827;50.878;4.382;2022-08-26T03:06:34;21.70;69.40
21338;DHT22;10827;50.878;4.382;2022-08-26T03:09:00;21.80;76.30
21338;DHT22;10827;50.878;4.382;2022-08-26T03:11:27;21.60;65.40
21338;DHT22;10827;50.878;4.382;2022-08-26T03:13:53;21.50;71.00
21338;DHT22;10827;50.878;4.382;2022-08-26T03:16:20;21.70;72.80
21338;DHT22;10827;50.878;4.382;2022-08-26T03:18:45;21.20;84.50
21338;DHT22;10827;50.878;4.382;2022-08-26T03:21:14;21.50;88.50
21338;DHT22;10827;50.878;4.382;2022-08-26T03:23:42;21.10;92.60
21338;DHT22;10827;50.878;4.382;2022-08-26T03:26:09;21.20;77.60
21338;DHT22;10827;50.878;4.382;2022-08-26T03:28:35;21.20;75.60
21338;DHT22;10827;50.878;4.382;2022-08-26T03:31:01;21.20;90.40
21338;DHT22;10827;50.878;4.382;2022-08-26T03:33:27;21.10;90.30
21338;DHT22;10827;50.878;4.382;2022-08-26T03:35:54;21.10;74.90
21338;DHT22;10827;50.878;4.382;2022-08-26T03:38:21;21.00;90.90
21338;DHT22;10827;50.878;4.382;2022-08-26T03:40:49;21.50;59.00
21338;DHT22;10827;50.878;4.382;2022-08-26T03:43:15;21.50;82.40
21338;DHT22;10827;50.878;4.382;2022-08-26T03:48:08;21.30;67.50
21338;DHT22;10827;50.878;4.382;2022-08-26T03:55:29;21.40;58.20
21338;DHT22;10827;50.878;4.382;2022-08-26T03:57:56;21.20;79.00
21338;DHT22;10827;50.878;4.382;2022-08-26T04:00:23;21.30;82.40
21338;DHT22;10827;50.878;4.382;2022-08-26T04:02:49;21.40;79.40
21338;DHT22;10827;50.878;4.382;2022-08-26T04:05:17;21.50;63.20
21338;DHT22;10827;50.878;4.382;2022-08-26T04:07:44;21.70;69.70
21338;DHT22;10827;50.878;4.382;2022-08-26T04:10:11;21.60;69.10
21338;DHT22;10827;50.878;4.382;2022-08-26T04:12:37;21.50;65.50
21338;DHT22;10827;50.878;4.382;2022-08-26T04:15:09;21.40;58.10
21338;DHT22;10827;50.878;4.382;2022-08-26T04:20:04;21.30;57.80
21338;DHT22;10827;50.878;4.382;2022-08-26T04:22:30;21.40;74.60
21338;DHT22;10827;50.878;4.382;2022-08-26T04:27:22;21.20;81.30
21338;DHT22;10827;50.878;4.382;2022-08-26T04:29:48;19.00;66.00
21338;DHT22;10827;50.878;4.382;2022-08-26T04:32:14;20.90;80.80
21338;DHT22;10827;50.878;4.382;2022-08-26T04:34:40;20.90;80.60
21338;DHT22;10827;50.878;4.382;2022-08-26T04:39:32;21.00;90.00
21338;DHT22;10827;50.878;4.382;2022-08-26T04:41:58;20.90;86.80
21338;DHT22;10827;50.878;4.382;2022-08-26T04:44:26;21.20;76.90
21338;DHT22;10827;50.878;4.382;2022-08-26T04:46:52;21.20;76.10
21338;DHT22;10827;50.878;4.382;2022-08-26T04:49:18;21.30;73.70
21338;DHT22;10827;50.878;4.382;2022-08-26T04:51:45;21.20;81.00
21338;DHT22;10827;50.878;4.382;2022-08-26T04:54:13;21.40;79.40
21338;DHT22;10827;50.878;4.382;2022-08-26T04:56:42;21.00;76.20
21338;DHT22;10827;50.878;4.382;2022-08-26T04:59:10;21.20;81.60
21338;DHT22;10827;50.878;4.382;2022-08-26T05:01:44;21.40;51.00
21338;DHT22;10827;50.878;4.382;2022-08-26T05:04:10;21.60;68.90
21338;DHT22;10827;50.878;4.382;2022-08-26T05:06:36;21.30;71.80
21338;DHT22;10827;50.878;4.382;2022-08-26T05:09:03;21.30;71.00
21338;DHT22;10827;50.878;4.382;2022-08-26T05:11:28;21.20;76.00
21338;DHT22;10827;50.878;4.382;2022-08-26T05:13:54;21.00;74.60
21338;DHT22;10827;50.878;4.382;2022-08-26T05:18:46;21.10;80.20
21338;DHT22;10827;50.878;4.382;2022-08-26T05:21:18;21.10;72.70
21338;DHT22;10827;50.878;4.382;2022-08-26T05:23:44;21.00;76.30
21338;DHT22;10827;50.878;4.382;2022-08-26T05:26:10;21.30;74.20
21338;DHT22;10827;50.878;4.382;2022-08-26T05:28:37;20.90;76.20
21338;DHT22;10827;50.878;4.382;2022-08-26T05:31:20;21.10;79.50
21338;DHT22;10827;50.878;4.382;2022-08-26T05:33:46;21.20;80.70
21338;DHT22;10827;50.878;4.382;2022-08-26T05:36:14;21.20;72.50
21338;DHT22;10827;50.878;4.382;2022-08-26T05:38:41;21.20;73.80
21338;DHT22;10827;50.878;4.382;2022-08-26T05:41:22;21.20;71.70
21338;DHT22;10827;50.878;4.382;2022-08-26T05:43:52;21.50;67.10
21338;DHT22;10827;50.878;4.382;2022-08-26T05:51:11;21.50;46.60
21338;DHT22;10827;50.878;4.382;2022-08-26T05:53:39;21.30;44.10
21338;DHT22;10827;50.878;4.382;2022-08-26T05:56:07;21.50;58.40
21338;DHT22;10827;50.878;4.382;2022-08-26T05:58:34;21.40;37.70
21338;DHT22;10827;50.878;4.382;2022-08-26T06:01:15;21.30;58.40
21338;DHT22;10827;50.878;4.382;2022-08-26T06:03:47;21.20;61.50
21338;DHT22;10827;50.878;4.382;2022-08-26T06:06:21;21.40;58.80
21338;DHT22;10827;50.878;4.382;2022-08-26T06:08:47;21.30;64.50
21338;DHT22;10827;50.878;4.382;2022-08-26T06:11:18;21.40;56.90
21338;DHT22;10827;50.878;4.382;2022-08-26T06:13:45;21.50;53.80
21338;DHT22;10827;50.878;4.382;2022-08-26T06:16:15;21.30;59.30
21338;DHT22;10827;50.878;4.382;2022-08-26T06:18:43;20.90;55.60
21338;DHT22;10827;50.878;4.382;2022-08-26T06:21:19;21.60;38.00
21338;DHT22;10827;50.878;4.382;2022-08-26T06:23:46;21.40;37.10
21338;DHT22;10827;50.878;4.382;2022-08-26T06:26:32;21.40;50.40
21338;DHT22;10827;50.878;4.382;2022-08-26T06:28:58;21.20;63.10
21338;DHT22;10827;50.878;4.382;2022-08-26T06:31:25;21.20;60.20
21338;DHT22;10827;50.878;4.382;2022-08-26T06:33:50;21.20;57.30
21338;DHT22;10827;50.878;4.382;2022-08-26T06:36:21;21.30;57.70
21338;DHT22;10827;50.878;4.382;2022-08-26T06:38:51;21.40;38.90
21338;DHT22;10827;50.878;4.382;2022-08-26T06:41:18;21.50;48.90
21338;DHT22;10827;50.878;4.382;2022-08-26T06:43:45;21.50;49.30
21338;DHT22;10827;50.878;4.382;2022-08-26T06:46:14;21.60;35.00
21338;DHT22;10827;50.878;4.382;2022-08-26T06:48:43;21.60;45.60
21338;DHT22;10827;50.878;4.382;2022-08-26T06:51:16;21.50;47.30
21338;DHT22;10827;50.878;4.382;2022-08-26T06:53:44;21.40;45.60
21338;DHT22;10827;50.878;4.382;2022-08-26T06:56:12;21.70;30.10
21338;DHT22;10827;50.878;4.382;2022-08-26T06:58:40;21.90;35.90
21338;DHT22;10827;50.878;4.382;2022-08-26T07:01:27;22.00;23.90
21338;DHT22;10827;50.878;4.382;2022-08-26T07:03:56;21.60;35.00
21338;DHT22;10827;50.878;4.382;2022-08-26T07:06:23;21.40;46.20
21338;DHT22;10827;50.878;4.382;2022-08-26T07:08:52;21.60;46.20
21338;DHT22;10827;50.878;4.382;2022-08-26T07:11:18;21.60;24.10
21338;DHT22;10827;50.878;4.382;2022-08-26T07:13:49;21.40;33.70
21338;DHT22;10827;50.878;4.382;2022-08-26T07:16:16;21.60;41.60
21338;DHT22;10827;50.878;4.382;2022-08-26T07:18:43;21.90;30.90
21338;DHT22;10827;50.878;4.382;2022-08-26T07:21:10;21.70;31.70
21338;DHT22;10827;50.878;4.382;2022-08-26T07:23:38;21.70;20.80
21338;DHT22;10827;50.878;4.382;2022-08-26T07:26:12;21.60;33.70
21338;DHT22;10827;50.878;4.382;2022-08-26T07:28:41;21.80;28.70
21338;DHT22;10827;50.878;4.382;2022-08-26T07:31:09;22.10;29.50
21338;DHT22;10827;50.878;4.382;2022-08-26T07:33:37;21.80;31.60
21338;DHT22;10827;50.878;4.382;2022-08-26T07:36:04;21.70;18.80
21338;DHT22;10827;50.878;4.382;2022-08-26T07:38:30;21.80;25.90
21338;DHT22;10827;50.878;4.382;2022-08-26T07:40:56;21.90;24.00
21338;DHT22;10827;50.878;4.382;2022-08-26T07:43:21;22.10;18.50
21338;DHT22;10827;50.878;4.382;2022-08-26T07:45:47;21.90;26.50
21338;DHT22;10827;50.878;4.382;2022-08-26T07:48:14;21.70;16.10
21338;DHT22;10827;50.878;4.382;2022-08-26T07:50:40;21.80;31.80
21338;DHT22;10827;50.878;4.382;2022-08-26T07:53:07;21.90;24.50
21338;DHT22;10827;50.878;4.382;2022-08-26T07:55:33;22.10;19.60
21338;DHT22;10827;50.878;4.382;2022-08-26T08:00:25;22.20;14.80
21338;DHT22;10827;50.878;4.382;2022-08-26T08:02:52;22.40;14.30
21338;DHT22;10827;50.878;4.382;2022-08-26T08:05:19;22.10;1.00
21338;DHT22;10827;50.878;4.382;2022-08-26T08:07:46;21.90;17.10
21338;DHT22;10827;50.878;4.382;2022-08-26T08:10:20;21.90;19.40
21338;DHT22;10827;50.878;4.382;2022-08-26T08:15:19;22.10;14.30
21338;DHT22;10827;50.878;4.382;2022-08-26T08:20:21;22.20;12.40
21338;DHT22;10827;50.878;4.382;2022-08-26T08:22:50;22.40;5.20
21338;DHT22;10827;50.878;4.382;2022-08-26T08:25:16;22.20;1.00
21338;DHT22;10827;50.878;4.382;2022-08-26T08:27:43;22.40;1.00
21338;DHT22;10827;50.878;4.382;2022-08-26T08:30:10;22.40;5.30
21338;DHT22;10827;50.878;4.382;2022-08-26T08:32:36;22.50;1.00
21338;DHT22;10827;50.878;4.382;2022-08-26T08:35:06;23.10;1.00
21338;DHT22;10827;50.878;4.382;2022-08-26T08:37:33;22.80;1.00
21338;DHT22;10827;50.878;4.382;2022-08-26T08:40:01;22.70;1.00
21338;DHT22;10827;50.878;4.382;2022-08-26T08:42:36;23.10;1.00
21338;DHT22;10827;50.878;4.382;2022-08-26T08:45:09;23.00;1.00
21338;DHT22;10827;50.878;4.382;2022-08-26T08:47:43;23.00;1.00
21338;DHT22;10827;50.878;4.382;2022-08-26T08:50:17;22.90;1.00
21338;DHT22;10827;50.878;4.382;2022-08-26T08:52:51;23.00;1.00
21338;DHT22;10827;50.878;4.382;2022-08-26T08:55:18;23.30;1.00
21338;DHT22;10827;50.878;4.382;2022-08-26T08:58:06;23.10;1.00
21338;DHT22;10827;50.878;4.382;2022-08-26T09:00:53;23.30;1.00
21338;DHT22;10827;50.878;4.382;2022-08-26T09:06:02;23.20;1.00
21338;DHT22;10827;50.878;4.382;2022-08-26T09:08:32;23.20;1.00
21338;DHT22;10827;50.878;4.382;2022-08-26T09:11:01;23.10;1.00
21338;DHT22;10827;50.878;4.382;2022-08-26T09:13:28;23.20;1.00
21338;DHT22;10827;50.878;4.382;2022-08-26T09:16:10;23.10;1.00
21338;DHT22;10827;50.878;4.382;2022-08-26T09:19:13;22.90;1.00
21338;DHT22;10827;50.878;4.382;2022-08-26T09:21:40;23.20;1.00
21338;DHT22;10827;50.878;4.382;2022-08-26T09:24:06;22.80;1.00
21338;DHT22;10827;50.878;4.382;2022-08-26T09:29:28;22.90;1.00
21338;DHT22;10827;50.878;4.382;2022-08-26T09:37:45;23.00;1.00
21338;DHT22;10827;50.878;4.382;2022-08-26T09:40:34;23.00;1.00
21338;DHT22;10827;50.878;4.382;2022-08-26T09:45:40;23.10;1.00
21338;DHT22;10827;50.878;4.382;2022-08-26T09:48:07;23.10;1.00
21338;DHT22;10827;50.878;4.382;2022-08-26T09:50:39;22.90;1.00
21338;DHT22;10827;50.878;4.382;2022-08-26T09:53:17;23.10;1.00
21338;DHT22;10827;50.878;4.382;2022-08-26T09:55:52;23.00;1.00
21338;DHT22;10827;50.878;4.382;2022-08-26T09:58:40;23.20;1.00
21338;DHT22;10827;50.878;4.382;2022-08-26T10:01:13;23.00;1.00
21338;DHT22;10827;50.878;4.382;2022-08-26T10:03:39;22.70;1.00
21338;DHT22;10827;50.878;4.382;2022-08-26T10:08:41;23.00;1.00
21338;DHT22;10827;50.878;4.382;2022-08-26T10:11:25;23.30;1.00
21338;DHT22;10827;50.878;4.382;2022-08-26T10:14:00;23.30;1.00
21338;DHT22;10827;50.878;4.382;2022-08-26T10:16:54;23.50;1.00
21338;DHT22;10827;50.878;4.382;2022-08-26T10:19:30;23.90;1.00
21338;DHT22;10827;50.878;4.382;2022-08-26T10:22:41;24.30;1.00
21338;DHT22;10827;50.878;4.382;2022-08-26T10:25:15;24.10;1.00
21338;DHT22;10827;50.878;4.382;2022-08-26T10:28:21;24.30;1.00
21338;DHT22;10827;50.878;4.382;2022-08-26T10:30:55;24.10;1.00
21338;DHT22;10827;50.878;4.382;2022-08-26T10:33:23;24.30;1.00
21338;DHT22;10827;50.878;4.382;2022-08-26T10:35:54;24.10;1.00
21338;DHT22;10827;50.878;4.382;2022-08-26T10:38:26;24.20;1.00
21338;DHT22;10827;50.878;4.382;2022-08-26T10:41:06;24.40;1.00
21338;DHT22;10827;50.878;4.382;2022-08-26T10:43:44;24.60;1.00
21338;DHT22;10827;50.878;4.382;2022-08-26T10:46:17;24.40;1.00
21338;DHT22;10827;50.878;4.382;2022-08-26T10:51:12;24.60;1.00
21338;DHT22;10827;50.878;4.382;2022-08-26T10:54:03;24.90;1.00
21338;DHT22;10827;50.878;4.382;2022-08-26T11:00:03;24.50;1.00
21338;DHT22;10827;50.878;4.382;2022-08-26T11:03:05;24.50;1.00
21338;DHT22;10827;50.878;4.382;2022-08-26T11:05:33;24.50;1.00
21338;DHT22;10827;50.878;4.382;2022-08-26T11:13:16;24.90;1.00
21338;DHT22;10827;50.878;4.382;2022-08-26T11:18:38;24.80;99.90
21338;DHT22;10827;50.878;4.382;2022-08-26T11:24:33;25.10;1.00
21338;DHT22;10827;50.878;4.382;2022-08-26T11:27:01;25.10;1.00
21338;DHT22;10827;50.878;4.382;2022-08-26T11:37:56;25.80;99.90
21338;DHT22;10827;50.878;4.382;2022-08-26T11:40:29;26.10;15.20
21338;DHT22;10827;50.878;4.382;2022-08-26T11:43:04;25.80;99.90
21338;DHT22;10827;50.878;4.382;2022-08-26T11:48:26;25.70;1.00
21338;DHT22;10827;50.878;4.382;2022-08-26T11:50:57;26.00;1.00
21338;DHT22;10827;50.878;4.382;2022-08-26T11:53:24;25.60;1.00
21338;DHT22;10827;50.878;4.382;2022-08-26T11:55:52;25.80;1.00
21338;DHT22;10827;50.878;4.382;2022-08-26T11:58:19;25.70;1.00
21338;DHT22;10827;50.878;4.382;2022-08-26T12:03:24;25.60;1.00
21338;DHT22;10827;50.878;4.382;2022-08-26T12:05:52;25.80;1.00
21338;DHT22;10827;50.878;4.382;2022-08-26T12:08:24;25.80;1.00
21338;DHT22;10827;50.878;4.382;2022-08-26T12:11:03;26.00;1.00
21338;DHT22;10827;50.878;4.382;2022-08-26T12:13:29;26.00;1.00
21338;DHT22;10827;50.878;4.382;2022-08-26T12:15:59;25.70;1.00
21338;DHT22;10827;50.878;4.382;2022-08-26T12:18:29;25.70;1.00
21338;DHT22;10827;50.878;4.382;2022-08-26T12:20:58;25.70;1.00
21338;DHT22;10827;50.878;4.382;2022-08-26T12:26:09;26.00;1.00
21338;DHT22;10827;50.878;4.382;2022-08-26T12:29:03;25.80;1.00
21338;DHT22;10827;50.878;4.382;2022-08-26T12:31:42;26.10;1.00
21338;DHT22;10827;50.878;4.382;2022-08-26T12:34:12;26.20;1.00
21338;DHT22;10827;50.878;4.382;2022-08-26T12:36:51;26.30;91.00
21338;DHT22;10827;50.878;4.382;2022-08-26T12:39:33;26.30;1.00
21338;DHT22;10827;50.878;4.382;2022-08-26T12:45:01;26.20;1.00
21338;DHT22;10827;50.878;4.382;2022-08-26T12:47:34;26.20;1.00
21338;DHT22;10827;50.878;4.382;2022-08-26T12:50:10;26.40;36.80
21338;DHT22;10827;50.878;4.382;2022-08-26T13:01:21;26.40;1.00
21338;DHT22;10827;50.878;4.382;2022-08-26T13:03:48;26.40;1.00
21338;DHT22;10827;50.878;4.382;2022-08-26T13:16:30;25.80;1.00
21338;DHT22;10827;50.878;4.382;2022-08-26T13:18:59;25.80;1.00
21338;DHT22;10827;50.878;4.382;2022-08-26T13:21:30;26.20;1.00
21338;DHT22;10827;50.878;4.382;2022-08-26T13:24:04;25.80;1.00
21338;DHT22;10827;50.878;4.382;2022-08-26T13:26:32;25.80;1.00
21338;DHT22;10827;50.878;4.382;2022-08-26T13:28:58;25.80;1.00
21338;DHT22;10827;50.878;4.382;2022-08-26T13:31:24;25.90;1.00
21338;DHT22;10827;50.878;4.382;2022-08-26T13:33:51;25.90;1.00
21338;DHT22;10827;50.878;4.382;2022-08-26T13:36:17;25.80;1.00
21338;DHT22;10827;50.878;4.382;2022-08-26T13:38:43;25.70;1.00
21338;DHT22;10827;50.878;4.382;2022-08-26T13:41:08;26.00;1.00
21338;DHT22;10827;50.878;4.382;2022-08-26T13:43:34;27.00;1.00
21338;DHT22;10827;50.878;4.382;2022-08-26T13:46:00;26.30;1.00
21338;DHT22;10827;50.878;4.382;2022-08-26T13:48:28;26.40;1.00
21338;DHT22;10827;50.878;4.382;2022-08-26T13:50:54;26.40;99.90
21338;DHT22;10827;50.878;4.382;2022-08-26T13:53:21;26.50;1.00
21338;DHT22;10827;50.878;4.382;2022-08-26T13:55:47;26.50;58.60
21338;DHT22;10827;50.878;4.382;2022-08-26T13:58:14;26.60;73.40
21338;DHT22;10827;50.878;4.382;2022-08-26T14:00:40;27.00;1.00
21338;DHT22;10827;50.878;4.382;2022-08-26T14:03:07;27.10;99.90
21338;DHT22;10827;50.878;4.382;2022-08-26T14:05:33;27.20;11.10
21338;DHT22;10827;50.878;4.382;2022-08-26T14:07:59;27.40;1.00
21338;DHT22;10827;50.878;4.382;2022-08-26T14:10:26;27.20;1.00
21338;DHT22;10827;50.878;4.382;2022-08-26T14:12:52;27.50;99.90
21338;DHT22;10827;50.878;4.382;2022-08-26T14:15:18;27.50;1.00
21338;DHT22;10827;50.878;4.382;2022-08-26T14:17:46;27.40;99.90
21338;DHT22;10827;50.878;4.382;2022-08-26T14:20:15;27.30;1.00
21338;DHT22;10827;50.878;4.382;2022-08-26T14:22:44;27.40;1.00
21338;DHT22;10827;50.878;4.382;2022-08-26T14:25:11;27.40;1.00
21338;DHT22;10827;50.878;4.382;2022-08-26T14:27:37;27.50;1.00
21338;DHT22;10827;50.878;4.382;2022-08-26T14:30:04;26.80;99.90
21338;DHT22;10827;50.878;4.382;2022-08-26T14:32:30;26.90;99.90
21338;DHT22;10827;50.878;4.382;2022-08-26T14:34:57;26.80;1.00
21338;DHT22;10827;50.878;4.382;2022-08-26T14:37:23;26.90;1.00
21338;DHT22;10827;50.878;4.382;2022-08-26T14:39:49;27.10;99.90
21338;DHT22;10827;50.878;4.382;2022-08-26T14:42:25;27.00;99.90
21338;DHT22;10827;50.878;4.382;2022-08-26T14:44:58;27.10;99.40
21338;DHT22;10827;50.878;4.382;2022-08-26T14:47:24;27.20;99.10
21338;DHT22;10827;50.878;4.382;2022-08-26T14:49:50;27.10;1.00
21338;DHT22;10827;50.878;4.382;2022-08-26T14:52:16;27.30;99.90
21338;DHT22;10827;50.878;4.382;2022-08-26T14:54:42;26.40;1.00
21338;DHT22;10827;50.878;4.382;2022-08-26T14:57:10;27.70;1.00
21338;DHT22;10827;50.878;4.382;2022-08-26T14:59:45;27.90;1.00
21338;DHT22;10827;50.878;4.382;2022-08-26T15:02:12;28.20;99.90
21338;DHT22;10827;50.878;4.382;2022-08-26T15:04:39;28.30;1.00
21338;DHT22;10827;50.878;4.382;2022-08-26T15:07:05;28.80;99.90
21338;DHT22;10827;50.878;4.382;2022-08-26T15:09:34;28.80;1.00
21338;DHT22;10827;50.878;4.382;2022-08-26T15:12:01;28.20;89.80
21338;DHT22;10827;50.878;4.382;2022-08-26T15:14:27;28.20;1.00
21338;DHT22;10827;50.878;4.382;2022-08-26T15:16:55;27.90;99.90
21338;DHT22;10827;50.878;4.382;2022-08-26T15:19:24;27.90;1.00
21338;DHT22;10827;50.878;4.382;2022-08-26T15:21:50;27.70;1.00
21338;DHT22;10827;50.878;4.382;2022-08-26T15:24:18;27.30;1.00
21338;DHT22;10827;50.878;4.382;2022-08-26T15:26:46;27.10;1.00
21338;DHT22;10827;50.878;4.382;2022-08-26T15:29:12;27.20;99.90
21338;DHT22;10827;50.878;4.382;2022-08-26T15:31:39;27.40;99.90
21338;DHT22;10827;50.878;4.382;2022-08-26T15:34:07;27.30;99.90
21338;DHT22;10827;50.878;4.382;2022-08-26T15:36:35;27.20;1.00
21338;DHT22;10827;50.878;4.382;2022-08-26T15:39:04;27.20;95.00
21338;DHT22;10827;50.878;4.382;2022-08-26T15:41:30;27.50;1.00
21338;DHT22;10827;50.878;4.382;2022-08-26T15:43:56;28.20;99.90
21338;DHT22;10827;50.878;4.382;2022-08-26T15:46:23;28.30;1.00
21338;DHT22;10827;50.878;4.382;2022-08-26T15:48:50;28.30;1.00
21338;DHT22;10827;50.878;4.382;2022-08-26T15:51:31;29.00;99.90
21338;DHT22;10827;50.878;4.382;2022-08-26T15:53:58;30.20;1.00
21338;DHT22;10827;50.878;4.382;2022-08-26T15:56:24;29.70;99.90
21338;DHT22;10827;50.878;4.382;2022-08-26T15:58:51;29.90;99.90
21338;DHT22;10827;50.878;4.382;2022-08-26T16:01:18;29.50;99.90
21338;DHT22;10827;50.878;4.382;2022-08-26T16:03:44;28.40;99.90
21338;DHT22;10827;50.878;4.382;2022-08-26T16:06:15;28.50;99.90
21338;DHT22;10827;50.878;4.382;2022-08-26T16:08:41;28.70;1.00
21338;DHT22;10827;50.878;4.382;2022-08-26T16:11:07;29.00;1.00
21338;DHT22;10827;50.878;4.382;2022-08-26T16:13:33;29.80;1.00
21338;DHT22;10827;50.878;4.382;2022-08-26T16:15:59;29.90;1.00
21338;DHT22;10827;50.878;4.382;2022-08-26T16:18:26;30.00;99.90
21338;DHT22;10827;50.878;4.382;2022-08-26T16:20:52;30.20;99.90
21338;DHT22;10827;50.878;4.382;2022-08-26T16:23:19;30.50;1.00
21338;DHT22;10827;50.878;4.382;2022-08-26T16:25:45;30.60;99.90
21338;DHT22;10827;50.878;4.382;2022-08-26T16:28:12;30.80;1.00
21338;DHT22;10827;50.878;4.382;2022-08-26T16:30:41;31.50;1.00
21338;DHT22;10827;50.878;4.382;2022-08-26T16:33:08;31.80;1.00
21338;DHT22;10827;50.878;4.382;2022-08-26T16:35:34;30.80;96.50
21338;DHT22;10827;50.878;4.382;2022-08-26T16:38:00;30.80;1.00
21338;DHT22;10827;50.878;4.382;2022-08-26T16:40:26;30.90;1.00
21338;DHT22;10827;50.878;4.382;2022-08-26T16:42:52;30.70;1.00
21338;DHT22;10827;50.878;4.382;2022-08-26T16:45:22;30.50;1.00
21338;DHT22;10827;50.878;4.382;2022-08-26T16:47:49;29.30;99.90
21338;DHT22;10827;50.878;4.382;2022-08-26T16:50:16;29.80;1.00
21338;DHT22;10827;50.878;4.382;2022-08-26T16:52:42;29.90;1.00
21338;DHT22;10827;50.878;4.382;2022-08-26T16:55:11;29.50;1.00
21338;DHT22;10827;50.878;4.382;2022-08-26T16:57:39;29.80;99.90
21338;DHT22;10827;50.878;4.382;2022-08-26T17:02:41;29.90;1.00
21338;DHT22;10827;50.878;4.382;2022-08-26T17:05:08;29.80;1.00
21338;DHT22;10827;50.878;4.382;2022-08-26T17:07:34;29.90;1.00
21338;DHT22;10827;50.878;4.382;2022-08-26T17:10:06;29.80;1.00
21338;DHT22;10827;50.878;4.382;2022-08-26T17:12:33;29.40;1.00
21338;DHT22;10827;50.878;4.382;2022-08-26T17:15:01;29.20;48.20
21338;DHT22;10827;50.878;4.382;2022-08-26T17:17:26;28.90;99.90
21338;DHT22;10827;50.878;4.382;2022-08-26T17:22:18;28.60;99.90
21338;DHT22;10827;50.878;4.382;2022-08-26T17:24:44;28.40;1.00
21338;DHT22;10827;50.878;4.382;2022-08-26T17:27:10;28.40;99.90
21338;DHT22;10827;50.878;4.382;2022-08-26T17:29:36;27.70;1.00
21338;DHT22;10827;50.878;4.382;2022-08-26T17:32:02;28.20;1.00
21338;DHT22;10827;50.878;4.382;2022-08-26T17:34:28;27.90;99.90
21338;DHT22;10827;50.878;4.382;2022-08-26T17:36:54;27.80;99.90
21338;DHT22;10827;50.878;4.382;2022-08-26T17:39:23;27.60;99.90
21338;DHT22;10827;50.878;4.382;2022-08-26T17:41:50;27.10;1.00
21338;DHT22;10827;50.878;4.382;2022-08-26T17:44:16;27.30;99.90
21338;DHT22;10827;50.878;4.382;2022-08-26T17:46:42;30.00;1.00
21338;DHT22;10827;50.878;4.382;2022-08-26T17:49:08;26.40;1.00